sensor_id;sensor_type;location;lat;lon;timestamp;temperature;humidity
23231;DHT22;11784;49.818;8.632;2023-04-25T00:01:11;12.90;91.90
23231;DHT22;11784;49.818;8.632;2023-04-25T00:03:38;13.00;92.00
23231;DHT22;11784;49.818;8.632;2023-04-25T00:06:04;13.00;92.10
23231;DHT22;11784;49.818;8.632;2023-04-25T00:08:30;13.00;92.10
23231;DHT22;11784;49.818;8.632;2023-04-25T00:10:57;13.00;91.90
23231;DHT22;11784;49.818;8.632;2023-04-25T00:13:22;13.00;91.90
23231;DHT22;11784;49.818;8.632;2023-04-25T00:15:48;13.00;92.10
23231;DHT22;11784;49.818;8.632;2023-04-25T00:18:14;13.10;92.10
23231;DHT22;11784;49.818;8.632;2023-04-25T00:20:40;13.10;91.90
23231;DHT22;11784;49.818;8.632;2023-04-25T00:23:12;13.10;91.60
23231;DHT22;11784;49.818;8.632;2023-04-25T00:25:45;13.10;91.60
23231;DHT22;11784;49.818;8.632;2023-04-25T00:28:11;13.10;91.50
23231;DHT22;11784;49.818;8.632;2023-04-25T00:30:38;13.10;91.60
23231;DHT22;11784;49.818;8.632;2023-04-25T00:33:03;13.10;91.50
23231;DHT22;11784;49.818;8.632;2023-04-25T00:35:29;13.00;91.70
23231;DHT22;11784;49.818;8.632;2023-04-25T00:37:54;13.10;91.90
23231;DHT22;11784;49.818;8.632;2023-04-25T00:40:20;13.00;92.20
23231;DHT22;11784;49.818;8.632;2023-04-25T00:42:47;13.10;92.30
23231;DHT22;11784;49.818;8.632;2023-04-25T00:45:14;13.00;92.20
23231;DHT22;11784;49.818;8.632;2023-04-25T00:47:44;13.00;92.30
23231;DHT22;11784;49.818;8.632;2023-04-25T00:50:11;13.10;92.30
23231;DHT22;11784;49.818;8.632;2023-04-25T00:52:41;13.10;92.40
23231;DHT22;11784;49.818;8.632;2023-04-25T00:55:08;13.10;92.20
23231;DHT22;11784;49.818;8.632;2023-04-25T00:57:34;13.10;92.20
23231;DHT22;11784;49.818;8.632;2023-04-25T01:00:00;13.10;92.10
23231;DHT22;11784;49.818;8.632;2023-04-25T01:02:26;13.10;92.20
23231;DHT22;11784;49.818;8.632;2023-04-25T01:04:52;13.10;92.20
23231;DHT22;11784;49.818;8.632;2023-04-25T01:07:18;13.10;92.20
23231;DHT22;11784;49.818;8.632;2023-04-25T01:09:44;13.10;92.10
23231;DHT22;11784;49.818;8.632;2023-04-25T01:12:09;13.10;92.00
23231;DHT22;11784;49.818;8.632;2023-04-25T01:14:35;13.10;92.00
23231;DHT22;11784;49.818;8.632;2023-04-25T01:17:01;13.10;92.00
23231;DHT22;11784;49.818;8.632;2023-04-25T01:19:27;13.10;92.20
23231;DHT22;11784;49.818;8.632;2023-04-25T01:21:52;13.10;92.10
23231;DHT22;11784;49.818;8.632;2023-04-25T01:24:18;13.10;91.90
23231;DHT22;11784;49.818;8.632;2023-04-25T01:26:44;13.10;91.70
23231;DHT22;11784;49.818;8.632;2023-04-25T01:29:17;13.10;91.80
23231;DHT22;11784;49.818;8.632;2023-04-25T01:31:44;13.10;91.80
23231;DHT22;11784;49.818;8.632;2023-04-25T01:34:10;13.10;91.90
23231;DHT22;11784;49.818;8.632;2023-04-25T01:36:36;13.00;92.00
23231;DHT22;11784;49.818;8.632;2023-04-25T01:39:01;13.10;91.80
23231;DHT22;11784;49.818;8.632;2023-04-25T01:41:27;13.00;91.60
23231;DHT22;11784;49.818;8.632;2023-04-25T01:43:54;13.00;91.80
23231;DHT22;11784;49.818;8.632;2023-04-25T01:46:19;13.00;92.20
23231;DHT22;11784;49.818;8.632;2023-04-25T01:48:45;13.00;92.10
23231;DHT22;11784;49.818;8.632;2023-04-25T01:51:11;13.00;92.00
23231;DHT22;11784;49.818;8.632;2023-04-25T01:53:37;13.00;92.00
23231;DHT22;11784;49.818;8.632;2023-04-25T01:56:03;13.00;91.90
23231;DHT22;11784;49.818;8.632;2023-04-25T01:58:29;13.00;92.00
23231;DHT22;11784;49.818;8.632;2023-04-25T02:00:54;13.00;92.10
23231;DHT22;11784;49.818;8.632;2023-04-25T02:03:20;13.00;92.20
23231;DHT22;11784;49.818;8.632;2023-04-25T02:05:45;13.00;92.10
23231;DHT22;11784;49.818;8.632;2023-04-25T02:08:11;13.00;91.90
23231;DHT22;11784;49.818;8.632;2023-04-25T02:10:36;13.00;91.90
23231;DHT22;11784;49.818;8.632;2023-04-25T02:13:03;13.00;92.00
23231;DHT22;11784;49.818;8.632;2023-04-25T02:15:30;13.00;92.00
23231;DHT22;11784;49.818;8.632;2023-04-25T02:17:56;13.00;92.10
23231;DHT22;11784;49.818;8.632;2023-04-25T02:20:22;13.00;92.00
23231;DHT22;11784;49.818;8.632;2023-04-25T02:22:48;13.00;92.00
23231;DHT22;11784;49.818;8.632;2023-04-25T02:25:14;13.00;91.90
23231;DHT22;11784;49.818;8.632;2023-04-25T02:27:41;13.00;92.00
23231;DHT22;11784;49.818;8.632;2023-04-25T02:30:07;13.00;92.10
23231;DHT22;11784;49.818;8.632;2023-04-25T02:32:33;13.00;92.00
23231;DHT22;11784;49.818;8.632;2023-04-25T02:35:02;12.90;92.00
23231;DHT22;11784;49.818;8.632;2023-04-25T02:37:33;12.90;92.00
23231;DHT22;11784;49.818;8.632;2023-04-25T02:39:59;12.90;92.00
23231;DHT22;11784;49.818;8.632;2023-04-25T02:42:26;12.90;92.00
23231;DHT22;11784;49.818;8.632;2023-04-25T02:44:51;12.90;92.10
23231;DHT22;11784;49.818;8.632;2023-04-25T02:47:17;12.90;92.10
23231;DHT22;11784;49.818;8.632;2023-04-25T02:49:42;12.90;92.00
23231;DHT22;11784;49.818;8.632;2023-04-25T02:52:08;12.90;92.10
23231;DHT22;11784;49.818;8.632;2023-04-25T02:54:34;12.80;92.10
23231;DHT22;11784;49.818;8.632;2023-04-25T02:56:59;12.80;92.20
23231;DHT22;11784;49.818;8.632;2023-04-25T02:59:26;12.80;92.30
23231;DHT22;11784;49.818;8.632;2023-04-25T03:01:51;12.80;92.20
23231;DHT22;11784;49.818;8.632;2023-04-25T03:04:17;12.80;92.20
23231;DHT22;11784;49.818;8.632;2023-04-25T03:06:44;12.80;92.10
23231;DHT22;11784;49.818;8.632;2023-04-25T03:09:09;12.70;92.00
23231;DHT22;11784;49.818;8.632;2023-04-25T03:11:36;12.70;92.10
23231;DHT22;11784;49.818;8.632;2023-04-25T03:14:02;12.70;92.40
23231;DHT22;11784;49.818;8.632;2023-04-25T03:16:27;12.70;92.40
23231;DHT22;11784;49.818;8.632;2023-04-25T03:18:53;12.70;92.30
23231;DHT22;11784;49.818;8.632;2023-04-25T03:21:18;12.70;92.40
23231;DHT22;11784;49.818;8.632;2023-04-25T03:23:44;12.70;92.50
23231;DHT22;11784;49.818;8.632;2023-04-25T03:26:09;12.70;92.50
23231;DHT22;11784;49.818;8.632;2023-04-25T03:28:35;12.70;92.40
23231;DHT22;11784;49.818;8.632;2023-04-25T03:31:00;12.70;92.50
23231;DHT22;11784;49.818;8.632;2023-04-25T03:33:26;12.70;92.80
23231;DHT22;11784;49.818;8.632;2023-04-25T03:35:52;12.70;92.30
23231;DHT22;11784;49.818;8.632;2023-04-25T03:38:18;12.70;92.40
23231;DHT22;11784;49.818;8.632;2023-04-25T03:40:43;12.70;92.60
23231;DHT22;11784;49.818;8.632;2023-04-25T03:43:09;12.70;92.70
23231;DHT22;11784;49.818;8.632;2023-04-25T03:45:34;12.60;92.80
23231;DHT22;11784;49.818;8.632;2023-04-25T03:48:00;12.70;92.80
23231;DHT22;11784;49.818;8.632;2023-04-25T03:50:26;12.60;92.80
23231;DHT22;11784;49.818;8.632;2023-04-25T03:52:51;12.60;92.70
23231;DHT22;11784;49.818;8.632;2023-04-25T03:55:17;12.60;92.70
23231;DHT22;11784;49.818;8.632;2023-04-25T03:57:42;12.60;92.90
23231;DHT22;11784;49.818;8.632;2023-04-25T04:00:08;12.60;93.00
23231;DHT22;11784;49.818;8.632;2023-04-25T04:02:35;12.60;93.10
23231;DHT22;11784;49.818;8.632;2023-04-25T04:05:01;12.60;93.10
23231;DHT22;11784;49.818;8.632;2023-04-25T04:07:27;12.60;93.00
23231;DHT22;11784;49.818;8.632;2023-04-25T04:09:53;12.70;93.00
23231;DHT22;11784;49.818;8.632;2023-04-25T04:12:18;12.60;93.10
23231;DHT22;11784;49.818;8.632;2023-04-25T04:14:44;12.60;93.10
23231;DHT22;11784;49.818;8.632;2023-04-25T04:17:09;12.60;93.20
23231;DHT22;11784;49.818;8.632;2023-04-25T04:19:35;12.60;93.00
23231;DHT22;11784;49.818;8.632;2023-04-25T04:22:01;12.70;93.10
23231;DHT22;11784;49.818;8.632;2023-04-25T04:24:26;12.70;93.10
23231;DHT22;11784;49.818;8.632;2023-04-25T04:26:52;12.60;93.00
23231;DHT22;11784;49.818;8.632;2023-04-25T04:29:18;12.60;93.10
23231;DHT22;11784;49.818;8.632;2023-04-25T04:31:50;12.60;93.20
23231;DHT22;11784;49.818;8.632;2023-04-25T04:34:17;12.60;93.20
23231;DHT22;11784;49.818;8.632;2023-04-25T04:36:44;12.60;93.10
23231;DHT22;11784;49.818;8.632;2023-04-25T04:39:12;12.70;93.20
23231;DHT22;11784;49.818;8.632;2023-04-25T04:41:37;12.70;93.20
23231;DHT22;11784;49.818;8.632;2023-04-25T04:44:03;12.70;93.10
23231;DHT22;11784;49.818;8.632;2023-04-25T04:46:29;12.70;93.10
23231;DHT22;11784;49.818;8.632;2023-04-25T04:48:55;12.60;93.20
23231;DHT22;11784;49.818;8.632;2023-04-25T04:51:21;12.70;93.30
23231;DHT22;11784;49.818;8.632;2023-04-25T04:53:47;12.70;93.20
23231;DHT22;11784;49.818;8.632;2023-04-25T04:56:12;12.70;93.00
23231;DHT22;11784;49.818;8.632;2023-04-25T04:58:38;12.70;92.60
23231;DHT22;11784;49.818;8.632;2023-04-25T05:01:03;12.80;92.60
23231;DHT22;11784;49.818;8.632;2023-04-25T05:03:29;12.70;92.50
23231;DHT22;11784;49.818;8.632;2023-04-25T05:05:54;12.80;92.50
23231;DHT22;11784;49.818;8.632;2023-04-25T05:08:20;12.80;92.40
23231;DHT22;11784;49.818;8.632;2023-04-25T05:10:45;12.80;92.60
23231;DHT22;11784;49.818;8.632;2023-04-25T05:13:11;12.80;92.60
23231;DHT22;11784;49.818;8.632;2023-04-25T05:15:37;12.80;92.60
23231;DHT22;11784;49.818;8.632;2023-04-25T05:18:02;12.80;92.60
23231;DHT22;11784;49.818;8.632;2023-04-25T05:20:28;12.80;92.00
23231;DHT22;11784;49.818;8.632;2023-04-25T05:22:53;12.80;91.50
23231;DHT22;11784;49.818;8.632;2023-04-25T05:25:19;12.80;91.40
23231;DHT22;11784;49.818;8.632;2023-04-25T05:27:44;12.80;91.30
23231;DHT22;11784;49.818;8.632;2023-04-25T05:30:10;12.80;91.10
23231;DHT22;11784;49.818;8.632;2023-04-25T05:32:35;12.70;91.00
23231;DHT22;11784;49.818;8.632;2023-04-25T05:35:02;12.70;91.30
23231;DHT22;11784;49.818;8.632;2023-04-25T05:37:28;12.60;90.60
23231;DHT22;11784;49.818;8.632;2023-04-25T05:39:55;12.60;90.10
23231;DHT22;11784;49.818;8.632;2023-04-25T05:42:21;12.60;89.10
23231;DHT22;11784;49.818;8.632;2023-04-25T05:44:46;12.60;88.40
23231;DHT22;11784;49.818;8.632;2023-04-25T05:47:12;12.60;87.10
23231;DHT22;11784;49.818;8.632;2023-04-25T05:49:37;12.60;85.70
23231;DHT22;11784;49.818;8.632;2023-04-25T05:52:03;12.60;86.50
23231;DHT22;11784;49.818;8.632;2023-04-25T05:54:28;12.70;86.60
23231;DHT22;11784;49.818;8.632;2023-04-25T05:56:56;12.70;85.30
23231;DHT22;11784;49.818;8.632;2023-04-25T05:59:22;12.80;86.70
23231;DHT22;11784;49.818;8.632;2023-04-25T06:01:47;12.80;84.20
23231;DHT22;11784;49.818;8.632;2023-04-25T06:04:13;12.90;84.50
23231;DHT22;11784;49.818;8.632;2023-04-25T06:06:38;12.90;83.10
23231;DHT22;11784;49.818;8.632;2023-04-25T06:09:04;12.90;82.50
23231;DHT22;11784;49.818;8.632;2023-04-25T06:11:29;13.00;82.90
23231;DHT22;11784;49.818;8.632;2023-04-25T06:13:55;13.00;83.30
23231;DHT22;11784;49.818;8.632;2023-04-25T06:16:21;13.10;83.60
23231;DHT22;11784;49.818;8.632;2023-04-25T06:18:46;13.10;82.00
23231;DHT22;11784;49.818;8.632;2023-04-25T06:21:11;13.10;82.90
23231;DHT22;11784;49.818;8.632;2023-04-25T06:23:37;13.20;84.10
23231;DHT22;11784;49.818;8.632;2023-04-25T06:26:03;13.20;83.90
23231;DHT22;11784;49.818;8.632;2023-04-25T06:28:29;13.30;84.20
23231;DHT22;11784;49.818;8.632;2023-04-25T06:30:54;13.40;82.50
23231;DHT22;11784;49.818;8.632;2023-04-25T06:33:20;13.40;82.30
23231;DHT22;11784;49.818;8.632;2023-04-25T06:35:46;13.50;82.10
23231;DHT22;11784;49.818;8.632;2023-04-25T06:38:12;13.50;79.80
23231;DHT22;11784;49.818;8.632;2023-04-25T06:40:37;13.50;81.20
23231;DHT22;11784;49.818;8.632;2023-04-25T06:43:03;13.50;80.10
23231;DHT22;11784;49.818;8.632;2023-04-25T06:45:29;13.60;79.60
23231;DHT22;11784;49.818;8.632;2023-04-25T06:47:54;13.60;79.20
23231;DHT22;11784;49.818;8.632;2023-04-25T06:50:20;13.60;79.50
23231;DHT22;11784;49.818;8.632;2023-04-25T06:52:45;13.60;80.30
23231;DHT22;11784;49.818;8.632;2023-04-25T06:55:11;13.70;81.00
23231;DHT22;11784;49.818;8.632;2023-04-25T06:57:36;13.70;79.20
23231;DHT22;11784;49.818;8.632;2023-04-25T07:00:03;13.60;75.30
23231;DHT22;11784;49.818;8.632;2023-04-25T07:02:30;13.70;76.00
23231;DHT22;11784;49.818;8.632;2023-04-25T07:04:56;13.70;76.90
23231;DHT22;11784;49.818;8.632;2023-04-25T07:07:25;13.80;75.10
23231;DHT22;11784;49.818;8.632;2023-04-25T07:09:50;13.80;75.20
23231;DHT22;11784;49.818;8.632;2023-04-25T07:12:16;13.90;76.00
23231;DHT22;11784;49.818;8.632;2023-04-25T07:14:41;13.90;74.70
23231;DHT22;11784;49.818;8.632;2023-04-25T07:17:07;14.00;73.30
23231;DHT22;11784;49.818;8.632;2023-04-25T07:19:33;14.00;73.00
23231;DHT22;11784;49.818;8.632;2023-04-25T07:21:58;13.90;71.90
23231;DHT22;11784;49.818;8.632;2023-04-25T07:24:24;13.90;71.00
23231;DHT22;11784;49.818;8.632;2023-04-25T07:26:49;13.90;72.30
23231;DHT22;11784;49.818;8.632;2023-04-25T07:29:15;13.80;71.90
23231;DHT22;11784;49.818;8.632;2023-04-25T07:31:40;13.80;70.50
23231;DHT22;11784;49.818;8.632;2023-04-25T07:34:07;13.70;71.10
23231;DHT22;11784;49.818;8.632;2023-04-25T07:36:32;13.70;71.80
23231;DHT22;11784;49.818;8.632;2023-04-25T07:38:58;13.80;73.00
23231;DHT22;11784;49.818;8.632;2023-04-25T07:41:23;13.80;73.70
23231;DHT22;11784;49.818;8.632;2023-04-25T07:43:49;13.90;71.40
23231;DHT22;11784;49.818;8.632;2023-04-25T07:46:14;13.90;70.00
23231;DHT22;11784;49.818;8.632;2023-04-25T07:48:40;13.90;71.40
23231;DHT22;11784;49.818;8.632;2023-04-25T07:51:05;13.90;69.50
23231;DHT22;11784;49.818;8.632;2023-04-25T07:53:32;13.90;69.80
23231;DHT22;11784;49.818;8.632;2023-04-25T07:56:00;14.00;68.50
23231;DHT22;11784;49.818;8.632;2023-04-25T07:58:25;14.00;68.30
23231;DHT22;11784;49.818;8.632;2023-04-25T08:00:51;13.90;68.20
23231;DHT22;11784;49.818;8.632;2023-04-25T08:03:16;14.00;68.50
23231;DHT22;11784;49.818;8.632;2023-04-25T08:05:42;14.00;68.10
23231;DHT22;11784;49.818;8.632;2023-04-25T08:08:07;14.00;68.90
23231;DHT22;11784;49.818;8.632;2023-04-25T08:10:33;14.00;67.80
23231;DHT22;11784;49.818;8.632;2023-04-25T08:12:59;14.00;67.70
23231;DHT22;11784;49.818;8.632;2023-04-25T08:15:25;14.10;67.20
23231;DHT22;11784;49.818;8.632;2023-04-25T08:17:51;14.10;67.20
23231;DHT22;11784;49.818;8.632;2023-04-25T08:20:17;14.10;67.70
23231;DHT22;11784;49.818;8.632;2023-04-25T08:22:43;14.10;66.90
23231;DHT22;11784;49.818;8.632;2023-04-25T08:25:08;14.10;68.00
23231;DHT22;11784;49.818;8.632;2023-04-25T08:27:34;14.10;66.80
23231;DHT22;11784;49.818;8.632;2023-04-25T08:30:00;14.00;67.20
23231;DHT22;11784;49.818;8.632;2023-04-25T08:32:25;13.90;68.00
23231;DHT22;11784;49.818;8.632;2023-04-25T08:34:51;13.90;68.10
23231;DHT22;11784;49.818;8.632;2023-04-25T08:37:19;13.90;68.70
23231;DHT22;11784;49.818;8.632;2023-04-25T08:39:45;13.90;67.90
23231;DHT22;11784;49.818;8.632;2023-04-25T08:42:12;13.80;68.10
23231;DHT22;11784;49.818;8.632;2023-04-25T08:44:37;13.80;67.50
23231;DHT22;11784;49.818;8.632;2023-04-25T08:47:05;13.70;66.90
23231;DHT22;11784;49.818;8.632;2023-04-25T08:49:32;13.70;68.00
23231;DHT22;11784;49.818;8.632;2023-04-25T08:52:00;13.70;67.10
23231;DHT22;11784;49.818;8.632;2023-04-25T08:54:27;13.70;66.10
23231;DHT22;11784;49.818;8.632;2023-04-25T08:56:54;13.80;68.70
23231;DHT22;11784;49.818;8.632;2023-04-25T08:59:22;14.00;65.70
23231;DHT22;11784;49.818;8.632;2023-04-25T09:01:49;14.10;67.80
23231;DHT22;11784;49.818;8.632;2023-04-25T09:04:15;14.30;68.50
23231;DHT22;11784;49.818;8.632;2023-04-25T09:06:41;14.40;64.50
23231;DHT22;11784;49.818;8.632;2023-04-25T09:09:08;14.40;64.10
23231;DHT22;11784;49.818;8.632;2023-04-25T09:11:36;14.40;65.60
23231;DHT22;11784;49.818;8.632;2023-04-25T09:21:54;14.60;63.00
23231;DHT22;11784;49.818;8.632;2023-04-25T09:24:41;14.70;61.60
23231;DHT22;11784;49.818;8.632;2023-04-25T09:27:17;14.80;59.30
23231;DHT22;11784;49.818;8.632;2023-04-25T09:29:43;14.80;57.00
23231;DHT22;11784;49.818;8.632;2023-04-25T09:32:24;14.80;57.40
23231;DHT22;11784;49.818;8.632;2023-04-25T09:34:52;14.90;58.80
23231;DHT22;11784;49.818;8.632;2023-04-25T09:37:26;15.00;59.30
23231;DHT22;11784;49.818;8.632;2023-04-25T09:39:57;15.00;59.20
23231;DHT22;11784;49.818;8.632;2023-04-25T09:42:25;15.10;58.30
23231;DHT22;11784;49.818;8.632;2023-04-25T09:44:54;15.20;58.10
23231;DHT22;11784;49.818;8.632;2023-04-25T09:47:22;15.30;58.50
23231;DHT22;11784;49.818;8.632;2023-04-25T09:49:49;15.40;58.90
23231;DHT22;11784;49.818;8.632;2023-04-25T09:52:20;15.50;57.70
23231;DHT22;11784;49.818;8.632;2023-04-25T09:54:47;15.60;56.90
23231;DHT22;11784;49.818;8.632;2023-04-25T09:57:15;15.60;55.30
23231;DHT22;11784;49.818;8.632;2023-04-25T09:59:47;15.60;56.20
23231;DHT22;11784;49.818;8.632;2023-04-25T10:02:14;15.50;55.90
23231;DHT22;11784;49.818;8.632;2023-04-25T10:04:41;15.30;56.00
23231;DHT22;11784;49.818;8.632;2023-04-25T10:07:08;15.20;56.40
23231;DHT22;11784;49.818;8.632;2023-04-25T10:09:37;15.20;58.00
23231;DHT22;11784;49.818;8.632;2023-04-25T10:12:03;15.10;57.70
23231;DHT22;11784;49.818;8.632;2023-04-25T10:14:32;15.00;57.70
23231;DHT22;11784;49.818;8.632;2023-04-25T10:16:58;15.00;58.30
23231;DHT22;11784;49.818;8.632;2023-04-25T10:19:26;14.90;58.50
23231;DHT22;11784;49.818;8.632;2023-04-25T10:24:21;15.00;57.50
23231;DHT22;11784;49.818;8.632;2023-04-25T10:26:47;15.00;57.40
23231;DHT22;11784;49.818;8.632;2023-04-25T10:29:22;15.00;58.60
23231;DHT22;11784;49.818;8.632;2023-04-25T10:31:49;15.20;59.10
23231;DHT22;11784;49.818;8.632;2023-04-25T10:34:16;15.30;57.70
23231;DHT22;11784;49.818;8.632;2023-04-25T10:36:41;15.40;57.10
23231;DHT22;11784;49.818;8.632;2023-04-25T10:39:08;15.40;56.20
23231;DHT22;11784;49.818;8.632;2023-04-25T10:41:52;15.40;57.30
23231;DHT22;11784;49.818;8.632;2023-04-25T10:44:18;15.50;57.80
23231;DHT22;11784;49.818;8.632;2023-04-25T10:46:44;15.50;57.20
23231;DHT22;11784;49.818;8.632;2023-04-25T10:49:11;15.50;55.50
23231;DHT22;11784;49.818;8.632;2023-04-25T10:52:17;15.50;55.60
23231;DHT22;11784;49.818;8.632;2023-04-25T10:54:57;15.50;54.80
23231;DHT22;11784;49.818;8.632;2023-04-25T10:57:39;15.50;54.50
23231;DHT22;11784;49.818;8.632;2023-04-25T11:02:32;15.50;55.00
23231;DHT22;11784;49.818;8.632;2023-04-25T11:05:02;15.50;56.10
23231;DHT22;11784;49.818;8.632;2023-04-25T11:07:38;15.60;55.80
23231;DHT22;11784;49.818;8.632;2023-04-25T11:10:07;15.70;55.60
23231;DHT22;11784;49.818;8.632;2023-04-25T11:12:33;15.80;55.80
23231;DHT22;11784;49.818;8.632;2023-04-25T11:15:00;15.90;55.60
23231;DHT22;11784;49.818;8.632;2023-04-25T11:17:26;15.90;55.00
23231;DHT22;11784;49.818;8.632;2023-04-25T11:19:53;16.10;54.10
23231;DHT22;11784;49.818;8.632;2023-04-25T11:22:21;16.00;53.40
23231;DHT22;11784;49.818;8.632;2023-04-25T11:24:46;16.00;55.50
23231;DHT22;11784;49.818;8.632;2023-04-25T11:27:12;16.00;55.00
23231;DHT22;11784;49.818;8.632;2023-04-25T11:29:38;16.10;55.50
23231;DHT22;11784;49.818;8.632;2023-04-25T11:32:04;16.20;55.60
23231;DHT22;11784;49.818;8.632;2023-04-25T11:34:31;16.20;54.80
23231;DHT22;11784;49.818;8.632;2023-04-25T11:36:58;16.30;54.90
23231;DHT22;11784;49.818;8.632;2023-04-25T11:39:24;16.30;53.90
23231;DHT22;11784;49.818;8.632;2023-04-25T11:41:50;16.30;53.10
23231;DHT22;11784;49.818;8.632;2023-04-25T11:44:17;16.30;52.20
23231;DHT22;11784;49.818;8.632;2023-04-25T11:46:44;16.30;52.20
23231;DHT22;11784;49.818;8.632;2023-04-25T11:49:09;16.40;52.00
23231;DHT22;11784;49.818;8.632;2023-04-25T11:51:42;16.50;52.90
23231;DHT22;11784;49.818;8.632;2023-04-25T11:54:09;16.60;52.40
23231;DHT22;11784;49.818;8.632;2023-04-25T11:56:34;16.50;52.10
23231;DHT22;11784;49.818;8.632;2023-04-25T11:59:04;16.50;52.50
23231;DHT22;11784;49.818;8.632;2023-04-25T12:01:35;16.50;52.40
23231;DHT22;11784;49.818;8.632;2023-04-25T12:04:20;16.50;52.80
23231;DHT22;11784;49.818;8.632;2023-04-25T12:06:48;16.50;52.80
23231;DHT22;11784;49.818;8.632;2023-04-25T12:09:15;16.50;52.70
23231;DHT22;11784;49.818;8.632;2023-04-25T12:11:48;16.50;52.10
23231;DHT22;11784;49.818;8.632;2023-04-25T12:14:23;16.50;52.60
23231;DHT22;11784;49.818;8.632;2023-04-25T12:16:49;16.40;51.90
23231;DHT22;11784;49.818;8.632;2023-04-25T12:19:17;16.40;52.00
23231;DHT22;11784;49.818;8.632;2023-04-25T12:21:43;16.30;52.10
23231;DHT22;11784;49.818;8.632;2023-04-25T12:24:15;16.20;52.60
23231;DHT22;11784;49.818;8.632;2023-04-25T12:26:57;16.10;52.40
23231;DHT22;11784;49.818;8.632;2023-04-25T12:29:25;16.00;52.40
23231;DHT22;11784;49.818;8.632;2023-04-25T12:31:52;15.90;53.00
23231;DHT22;11784;49.818;8.632;2023-04-25T12:34:22;15.80;53.70
23231;DHT22;11784;49.818;8.632;2023-04-25T12:36:48;15.70;52.80
23231;DHT22;11784;49.818;8.632;2023-04-25T12:39:18;15.70;53.60
23231;DHT22;11784;49.818;8.632;2023-04-25T12:41:45;15.70;53.90
23231;DHT22;11784;49.818;8.632;2023-04-25T12:44:11;15.70;52.90
23231;DHT22;11784;49.818;8.632;2023-04-25T12:46:36;15.60;52.10
23231;DHT22;11784;49.818;8.632;2023-04-25T12:49:03;15.70;52.70
23231;DHT22;11784;49.818;8.632;2023-04-25T12:51:30;15.60;52.10
23231;DHT22;11784;49.818;8.632;2023-04-25T12:53:55;15.70;52.50
23231;DHT22;11784;49.818;8.632;2023-04-25T12:56:21;15.60;51.80
23231;DHT22;11784;49.818;8.632;2023-04-25T12:58:46;15.60;51.70
23231;DHT22;11784;49.818;8.632;2023-04-25T13:01:14;15.60;52.20
23231;DHT22;11784;49.818;8.632;2023-04-25T13:03:40;15.70;52.80
23231;DHT22;11784;49.818;8.632;2023-04-25T13:06:06;15.70;52.00
23231;DHT22;11784;49.818;8.632;2023-04-25T13:08:32;15.70;51.80
23231;DHT22;11784;49.818;8.632;2023-04-25T13:10:57;15.80;51.40
23231;DHT22;11784;49.818;8.632;2023-04-25T13:13:23;16.00;52.30
23231;DHT22;11784;49.818;8.632;2023-04-25T13:15:48;16.10;51.20
23231;DHT22;11784;49.818;8.632;2023-04-25T13:18:14;16.30;50.30
23231;DHT22;11784;49.818;8.632;2023-04-25T13:20:40;16.30;49.80
23231;DHT22;11784;49.818;8.632;2023-04-25T13:23:06;16.30;50.70
23231;DHT22;11784;49.818;8.632;2023-04-25T13:25:31;16.30;49.60
23231;DHT22;11784;49.818;8.632;2023-04-25T13:27:57;16.30;49.00
23231;DHT22;11784;49.818;8.632;2023-04-25T13:30:22;16.30;49.20
23231;DHT22;11784;49.818;8.632;2023-04-25T13:32:48;16.30;49.40
23231;DHT22;11784;49.818;8.632;2023-04-25T13:35:13;16.30;49.90
23231;DHT22;11784;49.818;8.632;2023-04-25T13:37:39;16.40;49.10
23231;DHT22;11784;49.818;8.632;2023-04-25T13:40:07;16.60;49.90
23231;DHT22;11784;49.818;8.632;2023-04-25T13:42:35;16.70;49.50
23231;DHT22;11784;49.818;8.632;2023-04-25T13:45:00;16.70;48.10
23231;DHT22;11784;49.818;8.632;2023-04-25T13:47:27;16.80;49.30
23231;DHT22;11784;49.818;8.632;2023-04-25T13:49:53;17.00;49.20
23231;DHT22;11784;49.818;8.632;2023-04-25T13:52:18;17.20;48.10
23231;DHT22;11784;49.818;8.632;2023-04-25T13:54:44;17.30;46.50
23231;DHT22;11784;49.818;8.632;2023-04-25T13:57:10;17.40;46.80
23231;DHT22;11784;49.818;8.632;2023-04-25T13:59:36;17.40;48.40
23231;DHT22;11784;49.818;8.632;2023-04-25T14:02:02;17.20;46.30
23231;DHT22;11784;49.818;8.632;2023-04-25T14:04:28;17.10;46.90
23231;DHT22;11784;49.818;8.632;2023-04-25T14:06:53;16.90;46.90
23231;DHT22;11784;49.818;8.632;2023-04-25T14:09:19;16.80;47.40
23231;DHT22;11784;49.818;8.632;2023-04-25T14:11:46;16.70;46.60
23231;DHT22;11784;49.818;8.632;2023-04-25T14:14:11;16.60;47.20
23231;DHT22;11784;49.818;8.632;2023-04-25T14:16:38;16.60;48.30
23231;DHT22;11784;49.818;8.632;2023-04-25T14:19:04;16.50;47.90
23231;DHT22;11784;49.818;8.632;2023-04-25T14:21:29;16.50;47.30
23231;DHT22;11784;49.818;8.632;2023-04-25T14:23:57;16.40;47.40
23231;DHT22;11784;49.818;8.632;2023-04-25T14:26:23;16.30;47.80
23231;DHT22;11784;49.818;8.632;2023-04-25T14:28:48;16.20;47.10
23231;DHT22;11784;49.818;8.632;2023-04-25T14:31:14;16.20;47.20
23231;DHT22;11784;49.818;8.632;2023-04-25T14:33:40;16.20;48.20
23231;DHT22;11784;49.818;8.632;2023-04-25T14:36:07;16.20;48.00
23231;DHT22;11784;49.818;8.632;2023-04-25T14:38:33;16.00;47.70
23231;DHT22;11784;49.818;8.632;2023-04-25T14:40:59;16.00;47.80
23231;DHT22;11784;49.818;8.632;2023-04-25T14:43:24;15.90;48.50
23231;DHT22;11784;49.818;8.632;2023-04-25T14:45:51;15.80;48.00
23231;DHT22;11784;49.818;8.632;2023-04-25T14:48:18;15.80;48.40
23231;DHT22;11784;49.818;8.632;2023-04-25T14:50:45;15.70;48.30
23231;DHT22;11784;49.818;8.632;2023-04-25T14:53:12;15.60;48.40
23231;DHT22;11784;49.818;8.632;2023-04-25T14:55:38;15.60;49.50
23231;DHT22;11784;49.818;8.632;2023-04-25T14:58:04;15.60;48.70
23231;DHT22;11784;49.818;8.632;2023-04-25T15:00:30;15.70;49.70
23231;DHT22;11784;49.818;8.632;2023-04-25T15:02:57;15.70;49.60
23231;DHT22;11784;49.818;8.632;2023-04-25T15:05:23;15.80;49.80
23231;DHT22;11784;49.818;8.632;2023-04-25T15:07:48;16.00;48.90
23231;DHT22;11784;49.818;8.632;2023-04-25T15:10:14;16.20;49.10
23231;DHT22;11784;49.818;8.632;2023-04-25T15:12:42;16.40;47.80
23231;DHT22;11784;49.818;8.632;2023-04-25T15:15:08;16.50;46.60
23231;DHT22;11784;49.818;8.632;2023-04-25T15:17:38;16.50;46.30
23231;DHT22;11784;49.818;8.632;2023-04-25T15:20:06;16.50;46.80
23231;DHT22;11784;49.818;8.632;2023-04-25T15:22:32;16.40;46.00
23231;DHT22;11784;49.818;8.632;2023-04-25T15:24:58;16.40;46.60
23231;DHT22;11784;49.818;8.632;2023-04-25T15:27:23;16.40;45.90
23231;DHT22;11784;49.818;8.632;2023-04-25T15:29:49;16.30;47.20
23231;DHT22;11784;49.818;8.632;2023-04-25T15:32:14;16.40;47.00
23231;DHT22;11784;49.818;8.632;2023-04-25T15:34:40;16.40;47.20
23231;DHT22;11784;49.818;8.632;2023-04-25T15:37:05;16.50;46.70
23231;DHT22;11784;49.818;8.632;2023-04-25T15:39:31;16.50;45.80